createdAt,value
2018-12-05T14:11:41.091Z,100655.00
2018-12-05T14:14:09.401Z,100655.00
2018-12-05T14:16:37.653Z,100652.00
2018-12-05T14:19:05.908Z,100648.00
2018-12-05T14:21:35.121Z,100640.00
2018-12-05T14:24:03.342Z,100641.00
2018-12-05T14:26:31.553Z,100635.00
2018-12-05T14:28:59.746Z,100639.00
2018-12-05T14:31:40.198Z,100627.00
2018-12-05T14:34:08.464Z,100639.00
2018-12-05T14:36:38.718Z,100639.00
2018-12-05T14:39:07.258Z,100626.00
2018-12-05T14:41:35.449Z,100623.00
2018-12-05T14:44:03.656Z,100616.00
2018-12-05T14:46:31.882Z,100611.00
2018-12-05T14:49:03.196Z,100613.00
2018-12-05T14:51:35.228Z,100612.00
2018-12-05T14:54:03.435Z,100603.00
2018-12-05T14:56:31.700Z,100597.00
2018-12-05T14:58:59.957Z,100598.00
2018-12-05T15:01:31.207Z,100601.00
2018-12-05T15:03:59.391Z,100597.00
2018-12-05T15:06:27.575Z,100593.00
2018-12-05T15:09:06.497Z,100588.00
2018-12-05T15:11:34.761Z,100587.00
2018-12-05T15:14:03.000Z,100589.00
2018-12-05T15:16:31.352Z,100582.00
2018-12-05T15:19:03.441Z,100576.00
2018-12-05T15:21:35.009Z,100577.00
2018-12-05T15:24:03.312Z,100578.00
2018-12-05T15:26:31.542Z,100586.00
2018-12-05T15:28:59.879Z,100570.00
2018-12-05T15:31:31.959Z,100567.00
2018-12-05T15:34:03.564Z,100562.00
2018-12-05T15:36:32.126Z,100569.00
2018-12-05T15:39:00.301Z,100566.00
2018-12-05T15:41:34.629Z,100558.00
2018-12-05T15:44:02.848Z,100555.00
2018-12-05T15:46:31.026Z,100552.00
2018-12-05T15:48:59.173Z,100554.00
2018-12-05T15:51:27.368Z,100555.00
2018-12-05T15:53:55.540Z,100549.00
2018-12-05T15:56:26.970Z,100546.00
2018-12-05T15:58:55.165Z,100549.00
2018-12-05T16:01:26.599Z,100540.00
2018-12-05T16:03:54.781Z,100545.00
2018-12-05T16:06:23.022Z,100544.00
2018-12-05T16:08:51.171Z,100537.00
2018-12-05T16:11:22.919Z,100538.00
2018-12-05T16:13:51.137Z,100534.00
2018-12-05T16:16:19.378Z,100532.00
2018-12-05T16:18:47.564Z,100529.00
2018-12-05T16:21:19.378Z,100518.00
2018-12-05T16:23:47.542Z,100521.00
2018-12-05T16:26:15.756Z,100526.00
2018-12-05T16:28:43.917Z,100525.00
2018-12-05T16:31:12.162Z,100517.00
2018-12-05T16:33:40.350Z,100511.00
2018-12-05T16:36:11.215Z,100509.00
2018-12-05T17:43:22.200Z,100450.00
2018-12-05T17:48:29.184Z,100451.00
2018-12-05T17:51:03.735Z,100439.00
2018-12-05T17:53:31.943Z,100441.00
2018-12-05T17:56:00.130Z,100433.00
2018-12-05T17:58:28.338Z,100436.00
2018-12-05T18:01:13.744Z,100427.00
2018-12-05T18:03:41.970Z,100428.00
2018-12-05T18:06:10.159Z,100416.00
2018-12-05T18:08:38.330Z,100408.00
2018-12-05T18:11:20.894Z,100413.00
2018-12-05T18:13:49.934Z,100404.00
2018-12-05T18:16:18.142Z,100410.00
2018-12-05T18:18:46.317Z,100399.00
2018-12-05T18:21:27.794Z,100406.00
2018-12-05T18:23:55.962Z,100398.00
2018-12-05T18:26:24.238Z,100383.00
2018-12-05T18:28:52.419Z,100380.00
2018-12-05T18:31:23.610Z,100379.00
2018-12-05T18:33:51.882Z,100371.00
2018-12-05T18:36:20.140Z,100381.00
2018-12-05T18:38:48.369Z,100373.00
2018-12-05T18:41:29.215Z,100371.00
2018-12-05T18:43:57.381Z,100373.00
2018-12-05T18:46:25.595Z,100364.00
2018-12-05T18:48:53.773Z,100366.00
2018-12-05T18:51:34.743Z,100359.00
2018-12-05T18:54:02.971Z,100352.00
2018-12-05T18:56:31.150Z,100347.00
2018-12-05T18:58:59.386Z,100353.00
2018-12-05T19:01:40.098Z,100358.00
2018-12-05T19:04:08.299Z,100361.00
2018-12-05T19:06:36.446Z,100362.00
2018-12-05T19:09:07.179Z,100352.00
2018-12-05T19:11:48.915Z,100351.00
2018-12-05T19:14:22.745Z,100351.00
2018-12-05T19:16:50.887Z,100349.00
2018-12-05T19:19:19.153Z,100338.00
2018-12-05T19:22:02.139Z,100332.00
2018-12-05T19:24:30.340Z,100331.00
2018-12-05T19:26:58.522Z,100317.00
2018-12-05T19:29:26.694Z,100309.00
2018-12-05T19:32:07.401Z,100309.00
2018-12-05T19:34:35.606Z,100306.00
2018-12-05T19:37:03.829Z,100300.00
2018-12-05T19:39:31.999Z,100294.00
2018-12-05T19:42:00.283Z,100304.00
2018-12-05T19:44:28.445Z,100283.00
2018-12-05T19:46:56.634Z,100290.00
2018-12-05T19:49:24.846Z,100298.00
2018-12-05T19:51:56.774Z,100290.00
2018-12-05T19:54:24.990Z,100289.00
2018-12-05T19:56:53.216Z,100285.00
2018-12-05T19:59:21.391Z,100282.00
2018-12-05T20:02:04.047Z,100275.00
2018-12-05T20:04:45.143Z,100273.00
2018-12-05T20:07:13.286Z,100267.00
2018-12-05T20:09:43.250Z,100257.00
2018-12-05T20:12:11.389Z,100256.00
2018-12-05T20:14:39.554Z,100260.00
2018-12-05T20:17:07.709Z,100250.00
2018-12-05T20:19:36.638Z,100254.00
2018-12-05T20:22:04.842Z,100257.00
2018-12-05T20:24:33.033Z,100255.00
2018-12-05T20:27:01.226Z,100260.00
2018-12-05T20:29:29.493Z,100250.00
2018-12-05T20:32:10.594Z,100251.00
2018-12-05T20:34:38.741Z,100237.00
2018-12-05T20:37:20.302Z,100229.00
2018-12-05T20:39:48.483Z,100239.00
2018-12-05T20:42:16.651Z,100239.00
2018-12-05T20:44:44.847Z,100235.00
2018-12-05T20:47:26.072Z,100232.00
2018-12-05T20:49:54.315Z,100219.00
2018-12-05T20:52:22.859Z,100224.00
2018-12-05T20:54:51.041Z,100219.00
2018-12-05T20:57:19.215Z,100212.00
2018-12-05T20:59:47.438Z,100206.00
2018-12-05T21:02:15.613Z,100198.00
2018-12-05T21:04:43.801Z,100201.00
2018-12-05T21:07:12.094Z,100194.00
2018-12-05T21:09:40.289Z,100203.00
2018-12-05T21:12:08.515Z,100194.00
2018-12-05T21:14:36.726Z,100188.00
2018-12-05T21:17:05.002Z,100172.00
2018-12-05T21:19:34.157Z,100181.00
2018-12-05T21:22:02.414Z,100186.00
2018-12-05T21:24:30.609Z,100170.00
2018-12-05T21:26:58.963Z,100173.00
2018-12-05T21:29:27.165Z,100160.00
2018-12-05T21:31:58.733Z,100159.00
2018-12-05T21:34:26.946Z,100151.00
2018-12-05T21:36:56.015Z,100156.00
2018-12-05T21:39:25.627Z,100151.00
2018-12-05T21:42:11.004Z,100147.00
2018-12-05T21:44:39.319Z,100148.00
2018-12-05T21:47:07.514Z,100134.00
2018-12-05T21:49:35.746Z,100129.00
2018-12-05T21:52:04.099Z,100129.00
2018-12-05T21:54:32.267Z,100128.00
2018-12-05T21:57:00.448Z,100124.00
2018-12-05T21:59:28.625Z,100119.00
2018-12-05T22:04:55.519Z,100118.00
2018-12-05T22:07:23.707Z,100118.00
2018-12-05T22:09:51.896Z,100115.00
2018-12-05T22:12:20.047Z,100116.00
2018-12-05T22:14:48.271Z,100117.00
2018-12-05T22:17:16.429Z,100117.00
2018-12-05T22:19:44.618Z,100113.00
2018-12-05T22:22:12.811Z,100110.00
2018-12-05T22:24:40.962Z,100103.00
2018-12-05T22:27:09.108Z,100098.00
2018-12-05T22:29:37.306Z,100099.00
2018-12-05T22:32:05.509Z,100094.00
2018-12-05T22:34:33.701Z,100088.00
2018-12-05T22:37:01.890Z,100085.00
2018-12-05T22:39:30.119Z,100089.00
2018-12-05T22:42:15.404Z,100081.00
2018-12-05T22:44:43.667Z,100079.00
2018-12-05T22:47:11.879Z,100067.00
2018-12-05T22:49:40.114Z,100066.00
2018-12-05T22:52:08.326Z,100060.00
2018-12-05T22:54:36.538Z,100051.00
2018-12-05T22:57:13.611Z,100059.00
2018-12-05T22:59:41.869Z,100050.00
2018-12-05T23:02:10.159Z,100045.00
2018-12-05T23:04:38.507Z,100045.00
2018-12-05T23:07:06.710Z,100049.00
2018-12-05T23:09:34.918Z,100044.00
2018-12-05T23:12:03.167Z,100034.00
2018-12-05T23:14:31.412Z,100033.00
2018-12-05T23:16:59.628Z,100019.00
2018-12-05T23:19:27.855Z,100020.00
2018-12-05T23:22:13.207Z,100018.00
2018-12-05T23:24:41.433Z,100013.00
2018-12-05T23:27:09.626Z,100011.00
2018-12-05T23:29:37.870Z,100009.00
2018-12-05T23:32:06.102Z,100007.00
2018-12-05T23:34:34.314Z,100011.00
2018-12-05T23:37:02.533Z,100012.00
2018-12-05T23:39:30.749Z,100015.00
2018-12-05T23:42:02.310Z,100016.00
2018-12-05T23:44:30.533Z,100023.00
2018-12-05T23:46:58.766Z,100024.00
2018-12-05T23:49:26.952Z,100027.00
2018-12-05T23:52:08.441Z,100020.00
2018-12-05T23:54:36.640Z,100019.00
2018-12-05T23:57:04.859Z,100031.00
2018-12-05T23:59:33.069Z,100022.00
